sensor_id;sensor_type;location;lat;lon;timestamp;temperature;humidity
15133;DHT22;7667;51.232;17.110;2023-04-25T00:01:18;8.60;99.90
15133;DHT22;7667;51.232;17.110;2023-04-25T00:03:45;8.60;99.90
15133;DHT22;7667;51.232;17.110;2023-04-25T00:06:14;8.50;99.90
15133;DHT22;7667;51.232;17.110;2023-04-25T00:08:41;8.50;99.90
15133;DHT22;7667;51.232;17.110;2023-04-25T00:11:09;8.50;99.90
15133;DHT22;7667;51.232;17.110;2023-04-25T00:13:37;8.50;99.90
15133;DHT22;7667;51.232;17.110;2023-04-25T00:16:04;8.50;99.90
15133;DHT22;7667;51.232;17.110;2023-04-25T00:18:32;8.50;99.90
15133;DHT22;7667;51.232;17.110;2023-04-25T00:21:00;8.50;99.90
15133;DHT22;7667;51.232;17.110;2023-04-25T00:23:27;8.50;99.90
15133;DHT22;7667;51.232;17.110;2023-04-25T00:25:55;8.50;99.90
15133;DHT22;7667;51.232;17.110;2023-04-25T00:28:23;8.50;99.90
15133;DHT22;7667;51.232;17.110;2023-04-25T00:30:50;8.50;99.90
15133;DHT22;7667;51.232;17.110;2023-04-25T00:33:18;8.40;99.90
15133;DHT22;7667;51.232;17.110;2023-04-25T00:35:46;8.40;99.90
15133;DHT22;7667;51.232;17.110;2023-04-25T00:38:13;8.40;99.90
15133;DHT22;7667;51.232;17.110;2023-04-25T00:40:41;8.40;99.90
15133;DHT22;7667;51.232;17.110;2023-04-25T00:43:10;8.40;99.90
15133;DHT22;7667;51.232;17.110;2023-04-25T00:45:39;8.40;99.90
15133;DHT22;7667;51.232;17.110;2023-04-25T00:48:07;8.50;99.90
15133;DHT22;7667;51.232;17.110;2023-04-25T00:50:35;8.50;99.90
15133;DHT22;7667;51.232;17.110;2023-04-25T00:53:04;8.50;99.90
15133;DHT22;7667;51.232;17.110;2023-04-25T00:55:32;8.50;99.90
15133;DHT22;7667;51.232;17.110;2023-04-25T00:58:01;8.40;99.90
15133;DHT22;7667;51.232;17.110;2023-04-25T01:00:29;8.40;99.90
15133;DHT22;7667;51.232;17.110;2023-04-25T01:02:57;8.30;99.90
15133;DHT22;7667;51.232;17.110;2023-04-25T01:05:26;8.30;99.90
15133;DHT22;7667;51.232;17.110;2023-04-25T01:07:53;8.30;99.90
15133;DHT22;7667;51.232;17.110;2023-04-25T01:10:21;8.20;99.90
15133;DHT22;7667;51.232;17.110;2023-04-25T01:12:49;8.20;99.90
15133;DHT22;7667;51.232;17.110;2023-04-25T01:15:17;8.20;99.90
15133;DHT22;7667;51.232;17.110;2023-04-25T01:17:44;8.10;99.90
15133;DHT22;7667;51.232;17.110;2023-04-25T01:20:14;8.10;99.90
15133;DHT22;7667;51.232;17.110;2023-04-25T01:22:42;8.00;99.90
15133;DHT22;7667;51.232;17.110;2023-04-25T01:25:11;8.00;99.90
15133;DHT22;7667;51.232;17.110;2023-04-25T01:27:40;7.90;99.90
15133;DHT22;7667;51.232;17.110;2023-04-25T01:30:08;7.90;99.90
15133;DHT22;7667;51.232;17.110;2023-04-25T01:32:36;7.90;99.90
15133;DHT22;7667;51.232;17.110;2023-04-25T01:35:09;7.90;99.90
15133;DHT22;7667;51.232;17.110;2023-04-25T01:37:42;7.80;99.90
15133;DHT22;7667;51.232;17.110;2023-04-25T01:40:11;7.90;99.90
15133;DHT22;7667;51.232;17.110;2023-04-25T01:42:42;7.90;99.90
15133;DHT22;7667;51.232;17.110;2023-04-25T01:45:11;7.80;99.90
15133;DHT22;7667;51.232;17.110;2023-04-25T01:47:39;7.70;99.90
15133;DHT22;7667;51.232;17.110;2023-04-25T01:50:09;7.70;99.90
15133;DHT22;7667;51.232;17.110;2023-04-25T01:52:38;7.70;99.90
15133;DHT22;7667;51.232;17.110;2023-04-25T01:55:06;7.60;99.90
15133;DHT22;7667;51.232;17.110;2023-04-25T01:57:34;7.60;99.90
15133;DHT22;7667;51.232;17.110;2023-04-25T02:00:04;7.60;99.90
15133;DHT22;7667;51.232;17.110;2023-04-25T02:02:33;7.50;99.90
15133;DHT22;7667;51.232;17.110;2023-04-25T02:05:01;7.40;99.90
15133;DHT22;7667;51.232;17.110;2023-04-25T02:07:29;7.40;99.90
15133;DHT22;7667;51.232;17.110;2023-04-25T02:09:57;7.40;99.90
15133;DHT22;7667;51.232;17.110;2023-04-25T02:12:24;7.30;99.90
15133;DHT22;7667;51.232;17.110;2023-04-25T02:14:53;7.30;99.90
15133;DHT22;7667;51.232;17.110;2023-04-25T02:17:21;7.20;99.90
15133;DHT22;7667;51.232;17.110;2023-04-25T02:19:49;7.20;99.90
15133;DHT22;7667;51.232;17.110;2023-04-25T02:22:17;7.10;99.90
15133;DHT22;7667;51.232;17.110;2023-04-25T02:24:45;7.10;99.90
15133;DHT22;7667;51.232;17.110;2023-04-25T02:27:13;7.10;99.90
15133;DHT22;7667;51.232;17.110;2023-04-25T02:29:41;7.00;99.90
15133;DHT22;7667;51.232;17.110;2023-04-25T02:32:08;7.00;99.90
15133;DHT22;7667;51.232;17.110;2023-04-25T02:34:36;6.80;99.90
15133;DHT22;7667;51.232;17.110;2023-04-25T02:37:04;6.80;99.90
15133;DHT22;7667;51.232;17.110;2023-04-25T02:39:32;6.80;99.90
15133;DHT22;7667;51.232;17.110;2023-04-25T02:41:59;6.70;99.90
15133;DHT22;7667;51.232;17.110;2023-04-25T02:44:28;6.80;99.90
15133;DHT22;7667;51.232;17.110;2023-04-25T02:46:55;6.70;99.90
15133;DHT22;7667;51.232;17.110;2023-04-25T02:49:23;6.60;99.90
15133;DHT22;7667;51.232;17.110;2023-04-25T02:51:50;6.60;99.90
15133;DHT22;7667;51.232;17.110;2023-04-25T02:54:18;6.60;99.90
15133;DHT22;7667;51.232;17.110;2023-04-25T02:56:46;6.60;99.90
15133;DHT22;7667;51.232;17.110;2023-04-25T02:59:13;6.50;99.90
15133;DHT22;7667;51.232;17.110;2023-04-25T03:01:41;6.50;99.90
15133;DHT22;7667;51.232;17.110;2023-04-25T03:04:08;6.50;99.90
15133;DHT22;7667;51.232;17.110;2023-04-25T03:06:36;6.40;99.90
15133;DHT22;7667;51.232;17.110;2023-04-25T03:09:04;6.50;99.90
15133;DHT22;7667;51.232;17.110;2023-04-25T03:11:31;6.50;99.90
15133;DHT22;7667;51.232;17.110;2023-04-25T03:13:59;6.50;99.90
15133;DHT22;7667;51.232;17.110;2023-04-25T03:16:27;6.50;99.90
15133;DHT22;7667;51.232;17.110;2023-04-25T03:18:54;6.50;99.90
15133;DHT22;7667;51.232;17.110;2023-04-25T03:21:22;6.50;99.90
15133;DHT22;7667;51.232;17.110;2023-04-25T03:23:50;6.50;99.90
15133;DHT22;7667;51.232;17.110;2023-04-25T03:26:18;6.50;99.90
15133;DHT22;7667;51.232;17.110;2023-04-25T03:28:45;6.50;99.90
15133;DHT22;7667;51.232;17.110;2023-04-25T03:31:13;6.40;99.90
15133;DHT22;7667;51.232;17.110;2023-04-25T03:33:41;6.40;99.90
15133;DHT22;7667;51.232;17.110;2023-04-25T03:36:08;6.40;99.90
15133;DHT22;7667;51.232;17.110;2023-04-25T03:38:36;6.40;99.90
15133;DHT22;7667;51.232;17.110;2023-04-25T03:41:04;6.40;99.90
15133;DHT22;7667;51.232;17.110;2023-04-25T03:43:32;6.30;99.90
15133;DHT22;7667;51.232;17.110;2023-04-25T03:46:00;6.30;99.90
15133;DHT22;7667;51.232;17.110;2023-04-25T03:48:27;6.30;99.90
15133;DHT22;7667;51.232;17.110;2023-04-25T03:50:55;6.20;99.90
15133;DHT22;7667;51.232;17.110;2023-04-25T03:53:24;6.20;99.90
15133;DHT22;7667;51.232;17.110;2023-04-25T03:55:52;6.20;99.90
15133;DHT22;7667;51.232;17.110;2023-04-25T03:58:19;6.20;99.90
15133;DHT22;7667;51.232;17.110;2023-04-25T04:00:47;6.20;99.90
15133;DHT22;7667;51.232;17.110;2023-04-25T04:03:14;6.30;99.90
15133;DHT22;7667;51.232;17.110;2023-04-25T04:05:42;6.30;99.90
15133;DHT22;7667;51.232;17.110;2023-04-25T04:08:10;6.30;99.90
15133;DHT22;7667;51.232;17.110;2023-04-25T04:10:38;6.40;99.90
15133;DHT22;7667;51.232;17.110;2023-04-25T04:13:05;6.40;99.90
15133;DHT22;7667;51.232;17.110;2023-04-25T04:15:33;6.40;99.90
15133;DHT22;7667;51.232;17.110;2023-04-25T04:18:00;6.50;99.90
15133;DHT22;7667;51.232;17.110;2023-04-25T04:20:30;6.50;99.90
15133;DHT22;7667;51.232;17.110;2023-04-25T04:22:57;6.50;99.90
15133;DHT22;7667;51.232;17.110;2023-04-25T04:25:25;6.60;99.90
15133;DHT22;7667;51.232;17.110;2023-04-25T04:27:53;6.70;99.90
15133;DHT22;7667;51.232;17.110;2023-04-25T04:30:23;6.80;99.90
15133;DHT22;7667;51.232;17.110;2023-04-25T04:32:51;6.80;99.90
15133;DHT22;7667;51.232;17.110;2023-04-25T04:35:19;6.80;99.90
15133;DHT22;7667;51.232;17.110;2023-04-25T04:37:47;6.80;99.90
15133;DHT22;7667;51.232;17.110;2023-04-25T04:40:15;6.90;99.90
15133;DHT22;7667;51.232;17.110;2023-04-25T04:42:43;6.90;99.90
15133;DHT22;7667;51.232;17.110;2023-04-25T04:45:15;6.90;99.90
15133;DHT22;7667;51.232;17.110;2023-04-25T04:47:43;7.00;99.90
15133;DHT22;7667;51.232;17.110;2023-04-25T04:50:10;7.00;99.90
15133;DHT22;7667;51.232;17.110;2023-04-25T04:52:38;7.10;99.90
15133;DHT22;7667;51.232;17.110;2023-04-25T04:55:06;7.10;99.90
15133;DHT22;7667;51.232;17.110;2023-04-25T04:57:35;7.00;99.90
15133;DHT22;7667;51.232;17.110;2023-04-25T05:00:03;7.10;99.90
15133;DHT22;7667;51.232;17.110;2023-04-25T05:02:38;7.20;99.90
15133;DHT22;7667;51.232;17.110;2023-04-25T05:05:07;7.20;99.90
15133;DHT22;7667;51.232;17.110;2023-04-25T05:07:35;7.30;99.90
15133;DHT22;7667;51.232;17.110;2023-04-25T05:10:03;7.50;99.90
15133;DHT22;7667;51.232;17.110;2023-04-25T05:12:31;7.40;99.90
15133;DHT22;7667;51.232;17.110;2023-04-25T05:15:00;7.40;99.90
15133;DHT22;7667;51.232;17.110;2023-04-25T05:17:27;7.50;99.90
15133;DHT22;7667;51.232;17.110;2023-04-25T05:19:55;7.50;99.90
15133;DHT22;7667;51.232;17.110;2023-04-25T05:22:23;7.70;99.90
15133;DHT22;7667;51.232;17.110;2023-04-25T05:24:50;7.80;99.90
15133;DHT22;7667;51.232;17.110;2023-04-25T05:27:21;7.80;99.90
15133;DHT22;7667;51.232;17.110;2023-04-25T05:29:49;7.90;99.90
15133;DHT22;7667;51.232;17.110;2023-04-25T05:32:17;7.90;99.90
15133;DHT22;7667;51.232;17.110;2023-04-25T05:34:45;8.00;99.90
15133;DHT22;7667;51.232;17.110;2023-04-25T05:37:12;8.10;99.90
15133;DHT22;7667;51.232;17.110;2023-04-25T05:39:40;8.10;99.90
15133;DHT22;7667;51.232;17.110;2023-04-25T05:42:08;8.10;99.90
15133;DHT22;7667;51.232;17.110;2023-04-25T05:44:35;8.00;99.90
15133;DHT22;7667;51.232;17.110;2023-04-25T05:47:03;8.10;99.90
15133;DHT22;7667;51.232;17.110;2023-04-25T05:49:32;8.10;99.90
15133;DHT22;7667;51.232;17.110;2023-04-25T05:51:59;8.20;99.90
15133;DHT22;7667;51.232;17.110;2023-04-25T05:54:27;8.40;99.90
15133;DHT22;7667;51.232;17.110;2023-04-25T05:56:56;8.50;99.90
15133;DHT22;7667;51.232;17.110;2023-04-25T05:59:24;8.50;99.90
15133;DHT22;7667;51.232;17.110;2023-04-25T06:01:52;8.40;99.90
15133;DHT22;7667;51.232;17.110;2023-04-25T06:04:19;8.40;99.90
15133;DHT22;7667;51.232;17.110;2023-04-25T06:06:48;8.40;99.90
15133;DHT22;7667;51.232;17.110;2023-04-25T06:09:15;8.50;99.90
15133;DHT22;7667;51.232;17.110;2023-04-25T06:11:44;8.40;99.90
15133;DHT22;7667;51.232;17.110;2023-04-25T06:14:12;8.50;99.90
15133;DHT22;7667;51.232;17.110;2023-04-25T06:16:39;8.60;99.90
15133;DHT22;7667;51.232;17.110;2023-04-25T06:19:07;8.60;99.90
15133;DHT22;7667;51.232;17.110;2023-04-25T06:21:34;8.80;99.90
15133;DHT22;7667;51.232;17.110;2023-04-25T06:24:02;8.90;99.90
15133;DHT22;7667;51.232;17.110;2023-04-25T06:26:30;8.90;99.90
15133;DHT22;7667;51.232;17.110;2023-04-25T06:28:57;8.90;99.90
15133;DHT22;7667;51.232;17.110;2023-04-25T06:31:25;8.90;99.90
15133;DHT22;7667;51.232;17.110;2023-04-25T06:33:52;9.00;99.90
15133;DHT22;7667;51.232;17.110;2023-04-25T06:36:21;9.20;99.90
15133;DHT22;7667;51.232;17.110;2023-04-25T06:38:52;9.40;99.90
15133;DHT22;7667;51.232;17.110;2023-04-25T06:41:20;9.40;99.90
15133;DHT22;7667;51.232;17.110;2023-04-25T06:43:47;9.50;99.90
15133;DHT22;7667;51.232;17.110;2023-04-25T06:46:15;9.50;99.90
15133;DHT22;7667;51.232;17.110;2023-04-25T06:48:43;9.60;99.90
15133;DHT22;7667;51.232;17.110;2023-04-25T06:51:10;9.50;99.90
15133;DHT22;7667;51.232;17.110;2023-04-25T06:53:40;9.50;99.90
15133;DHT22;7667;51.232;17.110;2023-04-25T06:56:08;9.50;99.90
15133;DHT22;7667;51.232;17.110;2023-04-25T06:58:35;9.50;99.90
15133;DHT22;7667;51.232;17.110;2023-04-25T07:01:03;9.40;99.90
15133;DHT22;7667;51.232;17.110;2023-04-25T07:03:31;9.30;99.90
15133;DHT22;7667;51.232;17.110;2023-04-25T07:05:58;9.30;99.90
15133;DHT22;7667;51.232;17.110;2023-04-25T07:08:27;9.40;99.90
15133;DHT22;7667;51.232;17.110;2023-04-25T07:10:56;9.60;99.90
15133;DHT22;7667;51.232;17.110;2023-04-25T07:13:23;9.70;99.90
15133;DHT22;7667;51.232;17.110;2023-04-25T07:15:51;9.70;99.90
15133;DHT22;7667;51.232;17.110;2023-04-25T07:18:21;9.80;99.90
15133;DHT22;7667;51.232;17.110;2023-04-25T07:20:48;9.80;99.90
15133;DHT22;7667;51.232;17.110;2023-04-25T07:23:16;9.70;99.90
15133;DHT22;7667;51.232;17.110;2023-04-25T07:25:43;9.70;99.90
15133;DHT22;7667;51.232;17.110;2023-04-25T07:28:11;9.60;99.90
15133;DHT22;7667;51.232;17.110;2023-04-25T07:30:39;9.60;99.90
15133;DHT22;7667;51.232;17.110;2023-04-25T07:33:06;9.70;99.90
15133;DHT22;7667;51.232;17.110;2023-04-25T07:35:34;10.10;99.90
15133;DHT22;7667;51.232;17.110;2023-04-25T07:38:02;10.30;99.90
15133;DHT22;7667;51.232;17.110;2023-04-25T07:40:30;10.50;99.90
15133;DHT22;7667;51.232;17.110;2023-04-25T07:42:58;10.50;99.90
15133;DHT22;7667;51.232;17.110;2023-04-25T07:45:26;10.60;99.90
15133;DHT22;7667;51.232;17.110;2023-04-25T07:47:53;10.80;99.90
15133;DHT22;7667;51.232;17.110;2023-04-25T07:50:21;11.00;99.90
15133;DHT22;7667;51.232;17.110;2023-04-25T07:52:49;11.20;99.90
15133;DHT22;7667;51.232;17.110;2023-04-25T07:55:16;11.10;99.90
15133;DHT22;7667;51.232;17.110;2023-04-25T07:57:44;11.10;99.90
15133;DHT22;7667;51.232;17.110;2023-04-25T08:00:12;11.10;99.90
15133;DHT22;7667;51.232;17.110;2023-04-25T08:02:41;11.10;99.90
15133;DHT22;7667;51.232;17.110;2023-04-25T08:05:09;11.20;99.90
15133;DHT22;7667;51.232;17.110;2023-04-25T08:07:41;11.20;99.90
15133;DHT22;7667;51.232;17.110;2023-04-25T08:10:10;11.10;99.90
15133;DHT22;7667;51.232;17.110;2023-04-25T08:12:37;11.20;99.90
15133;DHT22;7667;51.232;17.110;2023-04-25T08:15:05;11.30;99.90
15133;DHT22;7667;51.232;17.110;2023-04-25T08:17:33;11.40;99.90
15133;DHT22;7667;51.232;17.110;2023-04-25T08:20:01;11.40;99.90
15133;DHT22;7667;51.232;17.110;2023-04-25T08:22:32;11.50;99.90
15133;DHT22;7667;51.232;17.110;2023-04-25T08:25:00;11.70;99.90
15133;DHT22;7667;51.232;17.110;2023-04-25T08:27:28;11.10;99.90
15133;DHT22;7667;51.232;17.110;2023-04-25T08:29:56;10.80;99.90
15133;DHT22;7667;51.232;17.110;2023-04-25T08:32:24;10.80;99.90
15133;DHT22;7667;51.232;17.110;2023-04-25T08:34:56;10.40;99.90
15133;DHT22;7667;51.232;17.110;2023-04-25T08:37:23;10.70;99.90
15133;DHT22;7667;51.232;17.110;2023-04-25T08:39:51;10.90;99.90
15133;DHT22;7667;51.232;17.110;2023-04-25T08:42:21;11.10;99.90
15133;DHT22;7667;51.232;17.110;2023-04-25T08:44:50;11.20;99.90
15133;DHT22;7667;51.232;17.110;2023-04-25T08:47:22;11.20;99.90
15133;DHT22;7667;51.232;17.110;2023-04-25T08:49:53;11.00;99.90
15133;DHT22;7667;51.232;17.110;2023-04-25T08:52:23;11.00;99.90
15133;DHT22;7667;51.232;17.110;2023-04-25T08:54:52;11.10;99.90
15133;DHT22;7667;51.232;17.110;2023-04-25T08:57:21;11.10;99.90
15133;DHT22;7667;51.232;17.110;2023-04-25T08:59:50;11.30;99.90
15133;DHT22;7667;51.232;17.110;2023-04-25T09:02:19;11.20;99.90
15133;DHT22;7667;51.232;17.110;2023-04-25T09:04:48;11.20;99.90
15133;DHT22;7667;51.232;17.110;2023-04-25T09:07:17;11.20;99.90
15133;DHT22;7667;51.232;17.110;2023-04-25T09:09:48;11.10;99.90
15133;DHT22;7667;51.232;17.110;2023-04-25T09:12:18;11.10;99.90
15133;DHT22;7667;51.232;17.110;2023-04-25T09:15:12;11.50;99.90
15133;DHT22;7667;51.232;17.110;2023-04-25T09:17:55;11.80;99.90
15133;DHT22;7667;51.232;17.110;2023-04-25T09:20:24;12.00;99.90
15133;DHT22;7667;51.232;17.110;2023-04-25T09:23:02;11.70;99.90
15133;DHT22;7667;51.232;17.110;2023-04-25T09:25:35;11.50;99.90
15133;DHT22;7667;51.232;17.110;2023-04-25T09:28:06;11.50;99.90
15133;DHT22;7667;51.232;17.110;2023-04-25T09:30:35;11.80;99.90
15133;DHT22;7667;51.232;17.110;2023-04-25T09:33:10;11.80;99.90
15133;DHT22;7667;51.232;17.110;2023-04-25T09:35:44;12.10;99.90
15133;DHT22;7667;51.232;17.110;2023-04-25T09:38:14;12.30;99.90
15133;DHT22;7667;51.232;17.110;2023-04-25T09:40:46;12.10;99.90
15133;DHT22;7667;51.232;17.110;2023-04-25T09:43:22;12.10;99.90
15133;DHT22;7667;51.232;17.110;2023-04-25T09:45:52;12.60;99.90
15133;DHT22;7667;51.232;17.110;2023-04-25T09:48:25;12.70;99.90
15133;DHT22;7667;51.232;17.110;2023-04-25T09:51:11;12.80;99.90
15133;DHT22;7667;51.232;17.110;2023-04-25T09:53:45;12.40;99.90
15133;DHT22;7667;51.232;17.110;2023-04-25T09:56:18;12.10;99.90
15133;DHT22;7667;51.232;17.110;2023-04-25T09:58:47;12.50;99.90
15133;DHT22;7667;51.232;17.110;2023-04-25T10:01:17;11.90;99.90
15133;DHT22;7667;51.232;17.110;2023-04-25T10:03:46;11.60;99.90
15133;DHT22;7667;51.232;17.110;2023-04-25T10:06:19;11.40;99.90
15133;DHT22;7667;51.232;17.110;2023-04-25T10:08:49;11.40;99.90
15133;DHT22;7667;51.232;17.110;2023-04-25T10:11:18;11.40;99.90
15133;DHT22;7667;51.232;17.110;2023-04-25T10:13:46;11.50;99.90
15133;DHT22;7667;51.232;17.110;2023-04-25T10:16:15;12.00;99.90
15133;DHT22;7667;51.232;17.110;2023-04-25T10:18:43;12.10;99.90
15133;DHT22;7667;51.232;17.110;2023-04-25T10:21:11;12.10;99.90
15133;DHT22;7667;51.232;17.110;2023-04-25T10:23:39;12.40;99.90
15133;DHT22;7667;51.232;17.110;2023-04-25T10:26:07;12.70;99.90
15133;DHT22;7667;51.232;17.110;2023-04-25T10:29:00;13.20;99.90
15133;DHT22;7667;51.232;17.110;2023-04-25T10:31:32;13.10;99.90
15133;DHT22;7667;51.232;17.110;2023-04-25T10:34:00;12.60;99.90
15133;DHT22;7667;51.232;17.110;2023-04-25T10:36:32;12.60;99.90
15133;DHT22;7667;51.232;17.110;2023-04-25T10:39:04;12.80;99.90
15133;DHT22;7667;51.232;17.110;2023-04-25T10:41:46;12.90;99.90
15133;DHT22;7667;51.232;17.110;2023-04-25T10:44:15;13.20;99.90
15133;DHT22;7667;51.232;17.110;2023-04-25T10:46:44;12.90;99.90
15133;DHT22;7667;51.232;17.110;2023-04-25T10:52:26;12.80;99.90
15133;DHT22;7667;51.232;17.110;2023-04-25T10:54:56;12.60;99.90
15133;DHT22;7667;51.232;17.110;2023-04-25T11:00:17;12.20;99.90
15133;DHT22;7667;51.232;17.110;2023-04-25T11:02:58;12.00;99.90
15133;DHT22;7667;51.232;17.110;2023-04-25T11:08:00;12.30;99.90
15133;DHT22;7667;51.232;17.110;2023-04-25T11:10:34;12.10;99.90
15133;DHT22;7667;51.232;17.110;2023-04-25T11:13:05;12.10;99.90
15133;DHT22;7667;51.232;17.110;2023-04-25T11:15:32;12.10;99.90
15133;DHT22;7667;51.232;17.110;2023-04-25T11:18:00;12.30;99.90
15133;DHT22;7667;51.232;17.110;2023-04-25T11:20:28;12.40;99.90
15133;DHT22;7667;51.232;17.110;2023-04-25T11:22:58;12.90;99.90
15133;DHT22;7667;51.232;17.110;2023-04-25T11:25:33;13.30;99.90
15133;DHT22;7667;51.232;17.110;2023-04-25T11:28:04;13.00;99.90
15133;DHT22;7667;51.232;17.110;2023-04-25T11:30:32;12.80;99.90
15133;DHT22;7667;51.232;17.110;2023-04-25T11:32:59;13.00;99.90
15133;DHT22;7667;51.232;17.110;2023-04-25T11:35:27;13.00;99.90
15133;DHT22;7667;51.232;17.110;2023-04-25T11:37:55;12.90;99.90
15133;DHT22;7667;51.232;17.110;2023-04-25T11:40:22;12.90;99.90
15133;DHT22;7667;51.232;17.110;2023-04-25T11:42:50;12.90;99.90
15133;DHT22;7667;51.232;17.110;2023-04-25T11:45:23;12.90;99.90
15133;DHT22;7667;51.232;17.110;2023-04-25T11:47:51;12.90;99.90
15133;DHT22;7667;51.232;17.110;2023-04-25T11:50:19;12.80;99.90
15133;DHT22;7667;51.232;17.110;2023-04-25T11:52:48;12.70;99.90
15133;DHT22;7667;51.232;17.110;2023-04-25T11:55:18;12.50;99.90
15133;DHT22;7667;51.232;17.110;2023-04-25T11:57:48;12.50;99.90
15133;DHT22;7667;51.232;17.110;2023-04-25T12:00:21;12.30;99.90
15133;DHT22;7667;51.232;17.110;2023-04-25T12:02:54;12.40;99.90
15133;DHT22;7667;51.232;17.110;2023-04-25T12:05:30;12.40;99.90
15133;DHT22;7667;51.232;17.110;2023-04-25T12:08:14;12.50;99.90
15133;DHT22;7667;51.232;17.110;2023-04-25T12:10:45;12.50;99.90
15133;DHT22;7667;51.232;17.110;2023-04-25T12:13:23;12.80;99.90
15133;DHT22;7667;51.232;17.110;2023-04-25T12:15:54;13.20;99.90
15133;DHT22;7667;51.232;17.110;2023-04-25T12:18:24;13.30;99.90
15133;DHT22;7667;51.232;17.110;2023-04-25T12:20:55;13.10;99.90
15133;DHT22;7667;51.232;17.110;2023-04-25T12:23:27;13.00;99.90
15133;DHT22;7667;51.232;17.110;2023-04-25T12:25:55;12.90;99.90
15133;DHT22;7667;51.232;17.110;2023-04-25T12:28:25;12.70;99.90
15133;DHT22;7667;51.232;17.110;2023-04-25T12:33:31;12.50;99.90
15133;DHT22;7667;51.232;17.110;2023-04-25T12:36:05;12.60;99.90
15133;DHT22;7667;51.232;17.110;2023-04-25T12:38:41;12.20;99.90
15133;DHT22;7667;51.232;17.110;2023-04-25T12:41:09;12.10;99.90
15133;DHT22;7667;51.232;17.110;2023-04-25T12:43:37;11.90;99.90
15133;DHT22;7667;51.232;17.110;2023-04-25T12:46:05;12.00;99.90
15133;DHT22;7667;51.232;17.110;2023-04-25T12:48:32;12.40;99.90
15133;DHT22;7667;51.232;17.110;2023-04-25T12:51:00;13.00;99.90
15133;DHT22;7667;51.232;17.110;2023-04-25T12:53:28;13.50;99.90
15133;DHT22;7667;51.232;17.110;2023-04-25T12:55:56;13.50;99.90
15133;DHT22;7667;51.232;17.110;2023-04-25T12:58:24;13.20;99.90
15133;DHT22;7667;51.232;17.110;2023-04-25T13:00:52;13.20;99.90
15133;DHT22;7667;51.232;17.110;2023-04-25T13:03:20;13.00;99.90
15133;DHT22;7667;51.232;17.110;2023-04-25T13:05:49;12.80;99.90
15133;DHT22;7667;51.232;17.110;2023-04-25T13:08:17;13.00;99.90
15133;DHT22;7667;51.232;17.110;2023-04-25T13:10:45;13.30;99.90
15133;DHT22;7667;51.232;17.110;2023-04-25T13:13:12;13.70;99.90
15133;DHT22;7667;51.232;17.110;2023-04-25T13:15:41;13.90;99.90
15133;DHT22;7667;51.232;17.110;2023-04-25T13:18:09;13.60;99.90
15133;DHT22;7667;51.232;17.110;2023-04-25T13:20:37;13.30;99.90
15133;DHT22;7667;51.232;17.110;2023-04-25T13:23:04;13.00;99.90
15133;DHT22;7667;51.232;17.110;2023-04-25T13:25:32;12.60;99.90
15133;DHT22;7667;51.232;17.110;2023-04-25T13:28:01;12.40;99.90
15133;DHT22;7667;51.232;17.110;2023-04-25T13:30:29;12.30;99.90
15133;DHT22;7667;51.232;17.110;2023-04-25T13:32:57;12.30;99.90
15133;DHT22;7667;51.232;17.110;2023-04-25T13:35:30;12.30;99.90
15133;DHT22;7667;51.232;17.110;2023-04-25T13:37:58;12.30;99.90
15133;DHT22;7667;51.232;17.110;2023-04-25T13:40:26;12.30;99.90
15133;DHT22;7667;51.232;17.110;2023-04-25T13:42:55;12.30;99.90
15133;DHT22;7667;51.232;17.110;2023-04-25T13:45:23;12.30;99.90
15133;DHT22;7667;51.232;17.110;2023-04-25T13:47:51;12.10;99.90
15133;DHT22;7667;51.232;17.110;2023-04-25T13:50:18;11.90;99.90
15133;DHT22;7667;51.232;17.110;2023-04-25T13:52:47;11.80;99.90
15133;DHT22;7667;51.232;17.110;2023-04-25T13:55:15;11.80;99.90
15133;DHT22;7667;51.232;17.110;2023-04-25T13:57:42;12.00;99.90
15133;DHT22;7667;51.232;17.110;2023-04-25T14:00:11;12.30;99.90
15133;DHT22;7667;51.232;17.110;2023-04-25T14:02:39;12.20;99.90
15133;DHT22;7667;51.232;17.110;2023-04-25T14:05:07;12.20;99.90
15133;DHT22;7667;51.232;17.110;2023-04-25T14:07:36;12.30;99.90
15133;DHT22;7667;51.232;17.110;2023-04-25T14:10:05;12.30;99.90
15133;DHT22;7667;51.232;17.110;2023-04-25T14:12:33;12.30;99.90
15133;DHT22;7667;51.232;17.110;2023-04-25T14:15:01;12.30;99.90
15133;DHT22;7667;51.232;17.110;2023-04-25T14:17:29;12.20;99.90
15133;DHT22;7667;51.232;17.110;2023-04-25T14:19:57;12.20;99.90
15133;DHT22;7667;51.232;17.110;2023-04-25T14:22:24;12.00;99.90
15133;DHT22;7667;51.232;17.110;2023-04-25T14:24:52;11.80;99.90
15133;DHT22;7667;51.232;17.110;2023-04-25T14:27:20;11.70;99.90
15133;DHT22;7667;51.232;17.110;2023-04-25T14:29:49;11.70;99.90
15133;DHT22;7667;51.232;17.110;2023-04-25T14:32:16;11.60;99.90
15133;DHT22;7667;51.232;17.110;2023-04-25T14:34:44;11.50;99.90
15133;DHT22;7667;51.232;17.110;2023-04-25T14:37:12;11.40;99.90
15133;DHT22;7667;51.232;17.110;2023-04-25T14:39:39;11.40;99.90
15133;DHT22;7667;51.232;17.110;2023-04-25T14:42:07;11.40;99.90
15133;DHT22;7667;51.232;17.110;2023-04-25T14:44:35;11.40;99.90
15133;DHT22;7667;51.232;17.110;2023-04-25T14:47:02;11.50;99.90
15133;DHT22;7667;51.232;17.110;2023-04-25T14:49:32;11.40;99.90
15133;DHT22;7667;51.232;17.110;2023-04-25T14:52:00;11.30;99.90
15133;DHT22;7667;51.232;17.110;2023-04-25T14:54:28;11.30;99.90
15133;DHT22;7667;51.232;17.110;2023-04-25T14:56:55;11.20;99.90
15133;DHT22;7667;51.232;17.110;2023-04-25T14:59:24;11.10;99.90
15133;DHT22;7667;51.232;17.110;2023-04-25T15:01:52;11.00;99.90
15133;DHT22;7667;51.232;17.110;2023-04-25T15:04:20;10.90;99.90
15133;DHT22;7667;51.232;17.110;2023-04-25T15:06:48;10.90;99.90
15133;DHT22;7667;51.232;17.110;2023-04-25T15:09:15;10.90;99.90
15133;DHT22;7667;51.232;17.110;2023-04-25T15:11:45;10.90;99.90
15133;DHT22;7667;51.232;17.110;2023-04-25T15:14:12;10.80;99.90
15133;DHT22;7667;51.232;17.110;2023-04-25T15:16:40;10.80;99.90
15133;DHT22;7667;51.232;17.110;2023-04-25T15:19:08;10.80;99.90
15133;DHT22;7667;51.232;17.110;2023-04-25T15:21:36;10.90;99.90
15133;DHT22;7667;51.232;17.110;2023-04-25T15:24:04;11.00;99.90
15133;DHT22;7667;51.232;17.110;2023-04-25T15:26:31;11.10;99.90
15133;DHT22;7667;51.232;17.110;2023-04-25T15:28:59;11.30;99.90
15133;DHT22;7667;51.232;17.110;2023-04-25T15:31:27;11.40;99.90
15133;DHT22;7667;51.232;17.110;2023-04-25T15:33:55;11.60;99.90
15133;DHT22;7667;51.232;17.110;2023-04-25T15:36:22;11.60;99.90
15133;DHT22;7667;51.232;17.110;2023-04-25T15:38:50;11.40;99.90
15133;DHT22;7667;51.232;17.110;2023-04-25T15:41:18;11.50;99.90
15133;DHT22;7667;51.232;17.110;2023-04-25T15:43:47;11.40;99.90
15133;DHT22;7667;51.232;17.110;2023-04-25T15:46:16;11.30;99.90
15133;DHT22;7667;51.232;17.110;2023-04-25T15:48:43;11.10;99.90
15133;DHT22;7667;51.232;17.110;2023-04-25T15:51:12;10.90;99.90
15133;DHT22;7667;51.232;17.110;2023-04-25T15:53:40;10.70;99.90
15133;DHT22;7667;51.232;17.110;2023-04-25T15:56:07;10.60;99.90
15133;DHT22;7667;51.232;17.110;2023-04-25T15:58:35;10.50;99.90